createdAt,value
2019-05-05T00:02:11.449Z,1.90
2019-05-05T00:04:58.321Z,1.80
2019-05-05T00:07:30.452Z,1.80
2019-05-05T00:09:59.701Z,1.80
2019-05-05T00:12:46.481Z,1.90
2019-05-05T00:15:34.476Z,1.90
2019-05-05T00:18:05.420Z,1.90
2019-05-05T00:20:34.828Z,2.00
2019-05-05T00:23:05.320Z,2.00
2019-05-05T00:25:34.637Z,2.00
2019-05-05T00:28:05.034Z,2.00
2019-05-05T00:30:34.705Z,2.00
2019-05-05T00:33:05.578Z,2.00
2019-05-05T00:35:34.832Z,2.00
2019-05-05T00:38:05.071Z,2.00
2019-05-05T00:40:35.240Z,2.00
2019-05-05T00:43:05.331Z,2.00
2019-05-05T00:45:35.755Z,2.00
2019-05-05T00:48:26.776Z,2.00
2019-05-05T00:50:56.076Z,1.90
2019-05-05T00:53:25.378Z,1.90
2019-05-05T00:55:54.781Z,1.80
2019-05-05T00:58:24.762Z,1.80
2019-05-05T01:01:05.608Z,1.80
2019-05-05T01:03:35.076Z,1.90
2019-05-05T01:06:15.898Z,1.90
2019-05-05T01:08:45.804Z,1.90
2019-05-05T01:11:16.167Z,1.80
2019-05-05T01:13:45.641Z,1.80
2019-05-05T01:16:15.324Z,1.70
2019-05-05T01:18:45.133Z,1.70
2019-05-05T01:21:15.034Z,1.70
2019-05-05T01:23:45.513Z,1.70
2019-05-05T01:26:14.954Z,1.70
2019-05-05T01:28:44.731Z,1.70
2019-05-05T01:31:17.095Z,1.80
2019-05-05T01:34:20.221Z,1.80
2019-05-05T01:36:54.416Z,1.80
2019-05-05T01:39:48.924Z,1.80
2019-05-05T01:42:18.162Z,1.90
2019-05-05T01:44:47.426Z,1.90
2019-05-05T01:47:16.704Z,1.90
2019-05-05T01:49:45.964Z,1.90
2019-05-05T01:52:15.240Z,1.90
2019-05-05T01:54:44.741Z,1.90
2019-05-05T01:57:14.759Z,1.80
2019-05-05T01:59:44.958Z,1.90
2019-05-05T02:02:14.743Z,1.80
2019-05-05T02:04:44.744Z,1.90
2019-05-05T02:07:14.669Z,1.90
2019-05-05T02:09:44.982Z,1.90
2019-05-05T02:12:15.818Z,1.90
2019-05-05T02:14:45.241Z,1.80
2019-05-05T02:17:14.623Z,1.90
2019-05-05T02:19:44.451Z,1.80
2019-05-05T02:22:14.620Z,1.80
2019-05-05T02:24:44.571Z,1.80
2019-05-05T02:27:14.690Z,1.80
2019-05-05T02:29:49.131Z,1.80
2019-05-05T02:32:36.187Z,1.80
2019-05-05T02:35:08.222Z,1.80
2019-05-05T02:37:37.447Z,1.80
2019-05-05T02:40:09.880Z,1.80
2019-05-05T02:42:40.571Z,1.80
2019-05-05T02:45:15.335Z,1.80
2019-05-05T02:48:01.400Z,1.80
2019-05-05T02:50:55.945Z,1.70
2019-05-05T02:53:24.753Z,1.70
2019-05-05T02:55:57.520Z,1.80
2019-05-05T02:58:28.691Z,1.80
2019-05-05T03:01:26.254Z,1.80
2019-05-05T03:03:57.399Z,1.80
2019-05-05T03:06:26.584Z,1.80
2019-05-05T03:08:57.926Z,1.80
2019-05-05T03:11:29.136Z,1.80
2019-05-05T03:14:00.997Z,1.80
2019-05-05T03:16:35.317Z,1.80
2019-05-05T03:19:05.167Z,1.90
2019-05-05T03:21:34.457Z,1.90
2019-05-05T03:24:03.898Z,2.00
2019-05-05T03:26:34.003Z,2.00
2019-05-05T03:29:05.334Z,2.00
2019-05-05T03:31:35.344Z,2.00
2019-05-05T03:34:06.289Z,2.00
2019-05-05T03:36:35.749Z,2.00
2019-05-05T03:39:06.732Z,2.00
2019-05-05T03:41:41.111Z,2.00
2019-05-05T03:44:16.648Z,2.10
2019-05-05T03:46:46.326Z,2.10
2019-05-05T03:49:15.935Z,2.10
2019-05-05T03:51:45.461Z,2.10
2019-05-05T03:54:15.332Z,2.10
2019-05-05T03:56:44.629Z,2.10
2019-05-05T03:59:14.357Z,2.10
2019-05-05T04:02:05.544Z,2.10
2019-05-05T04:04:39.864Z,2.10
2019-05-05T04:07:09.161Z,2.10
2019-05-05T04:09:38.345Z,2.20
2019-05-05T04:12:07.644Z,2.20
2019-05-05T04:14:37.798Z,2.20
2019-05-05T04:17:29.158Z,2.20
2019-05-05T04:19:59.329Z,2.20
2019-05-05T04:22:31.695Z,2.20
2019-05-05T04:25:01.043Z,2.20
2019-05-05T04:27:30.283Z,2.20
2019-05-05T04:29:59.441Z,2.20
2019-05-05T04:32:28.897Z,2.20
2019-05-05T04:34:58.106Z,2.20
2019-05-05T04:37:27.267Z,2.20
2019-05-05T04:39:56.692Z,2.20
2019-05-05T04:42:25.975Z,2.20
2019-05-05T04:44:55.232Z,2.20
2019-05-05T04:47:28.711Z,2.30
2019-05-05T04:50:05.122Z,2.30
2019-05-05T04:52:34.533Z,2.30
2019-05-05T04:55:04.022Z,2.30
2019-05-05T04:57:35.326Z,2.30
2019-05-05T05:00:05.176Z,2.30
2019-05-05T05:02:43.669Z,2.30
2019-05-05T05:05:20.072Z,2.30
2019-05-05T05:07:49.389Z,2.30
2019-05-05T05:10:18.670Z,2.30
2019-05-05T05:12:47.876Z,2.30
2019-05-05T05:15:17.423Z,2.30
2019-05-05T05:17:56.386Z,2.30
2019-05-05T05:20:25.679Z,2.30
2019-05-05T05:22:54.853Z,2.30
2019-05-05T05:25:24.243Z,2.30
2019-05-05T05:27:53.709Z,2.40
2019-05-05T05:30:24.238Z,2.40
2019-05-05T05:32:54.025Z,2.40
2019-05-05T05:35:24.370Z,2.40
2019-05-05T05:37:55.919Z,2.50
2019-05-05T05:40:34.378Z,2.40
2019-05-05T05:43:05.573Z,2.50
2019-05-05T05:45:50.176Z,2.50
2019-05-05T05:48:28.573Z,2.50
2019-05-05T05:51:04.266Z,2.50
2019-05-05T05:53:34.850Z,2.50
2019-05-05T05:56:04.446Z,2.60
2019-05-05T05:58:33.858Z,2.60
2019-05-05T06:01:04.324Z,2.60
2019-05-05T06:03:34.033Z,2.60
2019-05-05T06:06:04.704Z,2.60
2019-05-05T06:08:34.785Z,2.70
2019-05-05T06:11:04.552Z,2.70
2019-05-05T06:13:33.868Z,2.60
2019-05-05T06:16:04.206Z,2.60
2019-05-05T06:18:34.548Z,2.60
2019-05-05T06:21:04.588Z,2.70
2019-05-05T06:23:34.558Z,2.70
2019-05-05T06:26:06.842Z,2.70
2019-05-05T06:28:34.883Z,2.70
2019-05-05T06:31:04.844Z,2.70
2019-05-05T06:33:34.873Z,2.80
2019-05-05T06:36:04.282Z,2.80
2019-05-05T06:38:34.610Z,2.80
2019-05-05T06:41:21.395Z,2.90
2019-05-05T06:44:24.857Z,2.90
2019-05-05T06:47:25.169Z,2.90
2019-05-05T06:49:54.474Z,3.00
2019-05-05T06:52:24.861Z,3.00
2019-05-05T06:54:54.375Z,3.00
2019-05-05T06:57:24.020Z,3.00
2019-05-05T06:59:54.435Z,3.10
2019-05-05T07:02:23.933Z,3.10
2019-05-05T07:04:54.612Z,3.20
2019-05-05T07:07:23.984Z,3.20
2019-05-05T07:09:54.682Z,3.20
2019-05-05T07:12:24.232Z,3.30
2019-05-05T07:14:53.894Z,3.30
2019-05-05T07:17:24.547Z,3.30
2019-05-05T07:19:54.414Z,3.40
2019-05-05T07:22:24.389Z,3.40
2019-05-05T07:24:54.310Z,3.40
2019-05-05T07:27:24.325Z,3.50
2019-05-05T07:29:54.255Z,3.60
2019-05-05T07:32:24.566Z,3.60
2019-05-05T07:35:04.299Z,3.70
2019-05-05T07:37:34.444Z,3.70
2019-05-05T07:40:04.346Z,3.70
2019-05-05T07:42:33.711Z,3.80
2019-05-05T07:45:05.450Z,3.80
2019-05-05T07:47:34.262Z,3.80
2019-05-05T07:50:04.194Z,3.80
2019-05-05T07:52:34.424Z,3.90
2019-05-05T07:55:03.808Z,3.90
2019-05-05T07:57:34.194Z,4.00
2019-05-05T08:00:05.399Z,4.00
2019-05-05T08:02:34.839Z,4.00
2019-05-05T08:05:04.765Z,4.00
2019-05-05T08:07:34.120Z,4.10
2019-05-05T08:10:04.576Z,4.20
2019-05-05T08:12:34.277Z,4.20
2019-05-05T08:15:04.344Z,4.20
2019-05-05T08:17:54.001Z,4.30
2019-05-05T08:20:30.110Z,4.30
2019-05-05T08:22:59.404Z,4.30
2019-05-05T08:25:45.598Z,4.40
2019-05-05T08:28:28.346Z,4.40
2019-05-05T08:31:08.876Z,4.40
2019-05-05T08:33:38.162Z,4.40
2019-05-05T08:36:07.361Z,4.50
2019-05-05T08:38:36.545Z,4.50
2019-05-05T08:41:05.951Z,4.60
2019-05-05T08:43:35.225Z,4.60
2019-05-05T08:46:05.019Z,4.70
2019-05-05T08:48:34.485Z,4.80
2019-05-05T08:51:04.865Z,4.80
2019-05-05T08:53:44.015Z,4.80
2019-05-05T08:56:05.626Z,4.80
2019-05-05T08:58:35.103Z,4.80
2019-05-05T09:01:04.528Z,4.90
2019-05-05T09:03:34.058Z,4.90
2019-05-05T09:06:04.675Z,4.90
2019-05-05T09:08:34.691Z,5.00
2019-05-05T09:11:04.888Z,5.00
2019-05-05T09:13:34.298Z,5.00
2019-05-05T09:16:03.911Z,5.00
2019-05-05T09:18:33.958Z,5.10
2019-05-05T09:21:04.347Z,5.20
2019-05-05T09:23:35.361Z,5.30
2019-05-05T09:26:20.085Z,5.30
2019-05-05T09:29:14.249Z,5.40
2019-05-05T09:31:45.080Z,5.60
2019-05-05T09:34:14.731Z,5.70
2019-05-05T09:36:44.102Z,5.80
2019-05-05T09:39:13.941Z,5.80
2019-05-05T09:41:44.630Z,5.80
2019-05-05T09:44:14.139Z,5.80
2019-05-05T09:46:44.653Z,5.80
2019-05-05T09:49:14.209Z,5.80
2019-05-05T09:51:44.084Z,5.80
2019-05-05T09:54:16.664Z,5.90
2019-05-05T09:56:44.526Z,5.90
2019-05-05T09:59:13.733Z,5.90
2019-05-05T10:01:44.457Z,5.90
2019-05-05T10:04:14.290Z,6.00
2019-05-05T10:06:47.596Z,6.10
2019-05-05T10:09:14.521Z,6.20
2019-05-05T10:11:44.991Z,6.40
2019-05-05T10:14:14.506Z,6.40
2019-05-05T10:16:43.741Z,6.50
2019-05-05T10:19:13.907Z,6.50
2019-05-05T10:21:44.432Z,6.50
2019-05-05T10:24:35.980Z,6.50
2019-05-05T10:27:05.369Z,6.40
2019-05-05T10:29:34.616Z,6.50
2019-05-05T10:32:04.581Z,6.40
2019-05-05T10:34:34.064Z,6.30
2019-05-05T10:37:04.193Z,6.20
2019-05-05T10:39:40.672Z,6.20
2019-05-05T10:42:09.952Z,6.20
2019-05-05T10:44:39.270Z,6.20
2019-05-05T10:47:08.541Z,6.20
2019-05-05T10:49:37.832Z,6.20
2019-05-05T10:52:07.033Z,6.30
2019-05-05T10:54:44.143Z,6.40
2019-05-05T10:57:07.245Z,6.40
2019-05-05T10:59:36.567Z,6.40
2019-05-05T11:02:05.814Z,6.30
2019-05-05T11:04:35.132Z,6.20
2019-05-05T11:07:04.458Z,6.20
2019-05-05T11:09:34.499Z,6.20
2019-05-05T11:12:03.728Z,6.20
2019-05-05T11:14:33.657Z,6.20
2019-05-05T11:17:04.137Z,6.30
2019-05-05T11:19:33.997Z,6.40
2019-05-05T11:22:03.278Z,6.50
2019-05-05T11:24:34.443Z,6.50
2019-05-05T11:27:04.422Z,6.60
2019-05-05T11:29:35.466Z,6.70
2019-05-05T11:32:07.627Z,6.60
2019-05-05T11:34:36.965Z,6.70
2019-05-05T11:37:11.878Z,6.60
2019-05-05T11:39:41.126Z,6.60
2019-05-05T11:42:10.442Z,6.50
2019-05-05T11:44:39.660Z,6.50
2019-05-05T11:47:08.963Z,6.40
2019-05-05T11:49:38.356Z,6.40
2019-05-05T11:52:07.632Z,6.40
2019-05-05T11:54:36.881Z,6.40
2019-05-05T11:57:06.377Z,6.20
2019-05-05T11:59:35.633Z,6.00
2019-05-05T12:02:04.941Z,5.80
2019-05-05T12:04:34.600Z,5.70
2019-05-05T12:07:04.199Z,5.60
2019-05-05T12:09:46.153Z,5.60
2019-05-05T12:12:15.391Z,5.50
2019-05-05T12:14:44.882Z,5.40
2019-05-05T12:17:16.543Z,5.40
2019-05-05T12:19:48.454Z,5.40
2019-05-05T12:22:16.772Z,5.40
2019-05-05T12:24:47.637Z,5.40
2019-05-05T12:27:41.896Z,5.20
2019-05-05T12:30:14.149Z,5.00
2019-05-05T12:32:43.895Z,4.70
2019-05-05T12:35:14.869Z,4.60
2019-05-05T12:37:44.564Z,4.60
2019-05-05T12:40:14.414Z,4.60
2019-05-05T12:42:44.017Z,4.70
2019-05-05T12:45:17.798Z,4.80
2019-05-05T12:48:08.788Z,5.20
2019-05-05T12:50:38.194Z,5.50
2019-05-05T12:53:07.446Z,5.60
2019-05-05T12:55:41.542Z,5.50
2019-05-05T12:58:07.694Z,5.40
2019-05-05T13:00:38.589Z,5.30
2019-05-05T13:03:07.812Z,5.30
2019-05-05T13:05:37.118Z,5.40
2019-05-05T13:08:06.485Z,5.50
2019-05-05T13:10:35.678Z,5.40
2019-05-05T13:13:04.916Z,5.40
2019-05-05T13:15:34.204Z,5.40
2019-05-05T13:18:03.722Z,5.30
2019-05-05T13:20:53.720Z,5.30
2019-05-05T13:23:38.476Z,5.20
2019-05-05T13:26:32.497Z,4.90
2019-05-05T13:29:01.788Z,4.80
2019-05-05T13:31:31.243Z,4.70
2019-05-05T13:34:04.256Z,4.80
2019-05-05T13:36:33.475Z,4.80
2019-05-05T13:39:04.442Z,4.80
2019-05-05T13:41:34.030Z,4.80
2019-05-05T13:44:05.294Z,4.70
2019-05-05T13:46:35.552Z,4.60
2019-05-05T13:49:23.936Z,4.60
2019-05-05T13:51:54.071Z,4.60
2019-05-05T13:54:24.243Z,4.50
2019-05-05T13:56:53.915Z,4.50
2019-05-05T13:59:25.109Z,4.60
2019-05-05T14:01:54.250Z,4.60
2019-05-05T14:04:23.473Z,4.60
2019-05-05T14:06:54.328Z,4.60
2019-05-05T14:09:23.608Z,4.60
2019-05-05T14:11:53.540Z,4.60
2019-05-05T14:14:24.237Z,4.60
2019-05-05T14:16:53.825Z,4.70
2019-05-05T14:19:24.849Z,4.70
2019-05-05T14:21:54.585Z,4.70
2019-05-05T14:24:34.026Z,4.80
2019-05-05T14:27:04.485Z,4.90
2019-05-05T14:29:51.340Z,4.90
2019-05-05T14:32:21.621Z,5.00
2019-05-05T14:34:56.751Z,5.20
2019-05-05T14:37:29.236Z,5.20
2019-05-05T14:39:58.428Z,5.30
2019-05-05T14:42:27.796Z,5.40
2019-05-05T14:44:57.237Z,5.30
2019-05-05T14:47:26.511Z,5.30
2019-05-05T14:49:55.804Z,5.40
2019-05-05T14:52:25.290Z,5.50
2019-05-05T14:54:54.642Z,5.50
2019-05-05T14:57:28.103Z,5.60
2019-05-05T14:59:57.810Z,5.50
2019-05-05T15:02:27.139Z,5.50
2019-05-05T15:04:58.522Z,5.60
2019-05-05T15:07:35.800Z,5.80
2019-05-05T15:10:25.211Z,5.80
2019-05-05T15:12:58.011Z,5.90
2019-05-05T15:15:27.248Z,5.90
2019-05-05T15:17:56.638Z,5.90
2019-05-05T15:20:26.006Z,5.90
2019-05-05T15:22:55.279Z,5.90
2019-05-05T15:25:24.573Z,5.90
2019-05-05T15:27:54.269Z,5.80
2019-05-05T15:30:26.856Z,5.70
2019-05-05T15:32:54.636Z,5.70
2019-05-05T15:35:23.914Z,5.60
2019-05-05T15:37:54.139Z,5.60
2019-05-05T15:40:24.765Z,5.50
2019-05-05T15:42:54.460Z,5.40
2019-05-05T15:45:23.998Z,5.50
2019-05-05T15:47:54.042Z,5.60
2019-05-05T15:50:23.533Z,5.60
2019-05-05T15:52:54.453Z,5.50
2019-05-05T15:55:24.559Z,5.40
2019-05-05T15:57:53.964Z,5.30
2019-05-05T16:00:25.473Z,5.20
2019-05-05T16:02:54.843Z,5.10
2019-05-05T16:05:24.351Z,5.30
2019-05-05T16:07:54.278Z,5.30
2019-05-05T16:10:25.227Z,5.20
2019-05-05T16:12:54.629Z,5.20
2019-05-05T16:15:45.755Z,5.10
2019-05-05T16:18:20.429Z,5.10
2019-05-05T16:20:59.274Z,5.10
2019-05-05T16:23:35.940Z,5.10
2019-05-05T16:26:05.301Z,4.90
2019-05-05T16:28:34.659Z,4.80
2019-05-05T16:31:05.484Z,4.70
2019-05-05T16:33:34.960Z,4.60
2019-05-05T16:36:06.073Z,4.60
2019-05-05T16:38:35.182Z,4.60
2019-05-05T16:41:04.647Z,4.60
2019-05-05T16:43:33.924Z,4.60
2019-05-05T16:46:04.263Z,4.70
2019-05-05T16:48:34.371Z,4.80
2019-05-05T16:51:05.200Z,4.90
2019-05-05T16:53:35.200Z,4.80
2019-05-05T16:56:05.756Z,4.70
2019-05-05T16:58:34.927Z,4.60
2019-05-05T17:01:04.563Z,4.50
2019-05-05T17:03:33.978Z,4.50
2019-05-05T17:06:03.727Z,4.40
2019-05-05T17:08:33.755Z,4.40
2019-05-05T17:11:03.255Z,4.30
2019-05-05T17:13:44.055Z,4.30
2019-05-05T17:16:35.903Z,4.30
2019-05-05T17:19:21.040Z,4.20
2019-05-05T17:22:27.518Z,4.20
2019-05-05T17:24:57.974Z,4.20
2019-05-05T17:27:27.184Z,4.20
2019-05-05T17:29:56.696Z,4.20
2019-05-05T17:32:26.008Z,4.20
2019-05-05T17:34:55.315Z,4.20
2019-05-05T17:37:24.555Z,4.20
2019-05-05T17:40:24.129Z,4.20
2019-05-05T17:43:24.320Z,4.20
2019-05-05T17:46:07.617Z,4.20
2019-05-05T17:48:44.197Z,4.10
2019-05-05T17:51:35.506Z,4.20
2019-05-05T17:54:20.873Z,4.20
2019-05-05T17:56:52.383Z,4.20
2019-05-05T17:59:23.557Z,4.20
2019-05-05T18:01:54.032Z,4.10
2019-05-05T18:04:24.200Z,4.10
2019-05-05T18:07:04.235Z,4.10
2019-05-05T18:09:51.321Z,4.10
2019-05-05T18:12:25.759Z,4.10
2019-05-05T18:14:56.215Z,4.00
2019-05-05T18:17:25.457Z,4.00
2019-05-05T18:19:54.925Z,4.00
2019-05-05T18:22:24.761Z,4.00
2019-05-05T18:24:54.145Z,3.90
2019-05-05T18:27:23.753Z,3.80
2019-05-05T18:29:54.411Z,3.80
2019-05-05T18:32:23.880Z,3.80
2019-05-05T18:34:54.533Z,3.80
2019-05-05T18:37:24.306Z,3.80
2019-05-05T18:39:54.638Z,3.80
2019-05-05T18:42:24.768Z,3.70
2019-05-05T18:45:06.839Z,3.70
2019-05-05T18:47:36.070Z,3.60
2019-05-05T18:50:05.869Z,3.60
2019-05-05T18:52:35.358Z,3.50
2019-05-05T18:55:05.165Z,3.50
2019-05-05T18:57:34.604Z,3.40
2019-05-05T19:00:04.837Z,3.40
2019-05-05T19:02:53.455Z,3.30
2019-05-05T19:05:43.900Z,3.30
2019-05-05T19:08:17.557Z,3.30
2019-05-05T19:10:46.921Z,3.30
2019-05-05T19:13:16.504Z,3.30
2019-05-05T19:15:45.822Z,3.30
2019-05-05T19:18:15.131Z,3.30
2019-05-05T19:20:50.551Z,3.30
2019-05-05T19:23:19.760Z,3.30
2019-05-05T19:25:49.150Z,3.30
2019-05-05T19:28:18.573Z,3.30
2019-05-05T19:30:47.874Z,3.30
2019-05-05T19:33:17.171Z,3.30
2019-05-05T19:35:47.385Z,3.20
2019-05-05T19:38:16.830Z,3.30
2019-05-05T19:40:46.167Z,3.30
2019-05-05T19:43:15.621Z,3.30
2019-05-05T19:45:44.993Z,3.20
2019-05-05T19:48:14.946Z,3.20
2019-05-05T19:50:49.495Z,3.20
2019-05-05T19:53:25.743Z,3.20
2019-05-05T19:55:56.082Z,3.20
2019-05-05T19:58:25.308Z,3.20
2019-05-05T20:00:57.219Z,3.30
2019-05-05T20:03:26.495Z,3.20
2019-05-05T20:05:55.881Z,3.20
2019-05-05T20:08:39.494Z,3.20
2019-05-05T20:10:56.301Z,3.20
2019-05-05T20:13:25.674Z,3.20
2019-05-05T20:16:01.537Z,3.20
2019-05-05T20:18:30.765Z,3.20
2019-05-05T20:21:04.075Z,3.20
2019-05-05T20:23:31.028Z,3.20
2019-05-05T20:26:00.463Z,3.20
2019-05-05T20:28:29.754Z,3.20
2019-05-05T20:30:58.999Z,3.20
2019-05-05T20:33:54.406Z,3.20
2019-05-05T20:36:25.605Z,3.20
2019-05-05T20:38:55.321Z,3.30
2019-05-05T20:41:25.035Z,3.30
2019-05-05T20:43:54.497Z,3.30
2019-05-05T20:46:24.047Z,3.30
2019-05-05T20:48:54.511Z,3.40
2019-05-05T20:51:24.364Z,3.40
2019-05-05T20:53:54.372Z,3.40
2019-05-05T20:56:23.703Z,3.40
2019-05-05T20:58:54.740Z,3.40
2019-05-05T21:01:24.595Z,3.30
2019-05-05T21:03:53.926Z,3.30
2019-05-05T21:06:24.615Z,3.30
2019-05-05T21:08:54.044Z,3.30
2019-05-05T21:11:24.684Z,3.30
2019-05-05T21:13:54.424Z,3.40
2019-05-05T21:16:23.829Z,3.40
2019-05-05T21:18:54.005Z,3.30
2019-05-05T21:21:26.070Z,3.40
2019-05-05T21:24:00.071Z,3.40
2019-05-05T21:26:46.667Z,3.40
2019-05-05T21:29:16.275Z,3.40
2019-05-05T21:31:45.644Z,3.40
2019-05-05T21:34:14.943Z,3.40
2019-05-05T21:36:44.969Z,3.40
2019-05-05T21:39:14.991Z,3.40
2019-05-05T21:41:44.396Z,3.40
2019-05-05T21:44:14.710Z,3.40
2019-05-05T21:46:44.168Z,3.40
2019-05-05T21:49:13.750Z,3.40
2019-05-05T21:52:08.139Z,3.40
2019-05-05T21:54:47.718Z,3.10
2019-05-05T21:57:29.638Z,3.40
2019-05-05T21:59:59.089Z,3.40
2019-05-05T22:02:28.451Z,3.40
2019-05-05T22:04:57.647Z,3.40
2019-05-05T22:07:26.913Z,3.40
2019-05-05T22:09:56.235Z,3.40
2019-05-05T22:12:25.624Z,3.40
2019-05-05T22:14:55.203Z,3.30
2019-05-05T22:17:24.529Z,3.40
2019-05-05T22:20:09.536Z,3.40
2019-05-05T22:22:40.410Z,3.40
2019-05-05T22:25:09.665Z,3.40
2019-05-05T22:27:39.119Z,3.40
2019-05-05T22:30:10.374Z,3.40
2019-05-05T22:32:39.486Z,3.30
2019-05-05T22:35:09.050Z,3.40
2019-05-05T22:37:38.326Z,3.40
2019-05-05T22:40:07.869Z,3.40
2019-05-05T22:42:37.152Z,3.40
2019-05-05T22:45:06.826Z,3.30
2019-05-05T22:47:36.006Z,3.30
2019-05-05T22:50:05.803Z,3.30
2019-05-05T22:52:35.540Z,3.30
2019-05-05T22:55:05.128Z,3.20
2019-05-05T22:57:34.659Z,3.20
2019-05-05T23:00:04.208Z,3.20
2019-05-05T23:02:35.892Z,3.20
2019-05-05T23:05:23.945Z,3.10
2019-05-05T23:07:54.557Z,3.20
2019-05-05T23:10:23.878Z,3.20
2019-05-05T23:12:54.425Z,3.10
2019-05-05T23:15:25.465Z,3.10
2019-05-05T23:18:00.529Z,3.10
2019-05-05T23:20:57.683Z,3.10
2019-05-05T23:23:44.557Z,3.10
2019-05-05T23:26:15.757Z,3.10
2019-05-05T23:28:45.069Z,3.10
2019-05-05T23:31:16.119Z,3.20
2019-05-05T23:33:45.494Z,3.20
2019-05-05T23:36:14.880Z,3.20
2019-05-05T23:38:44.932Z,3.20
2019-05-05T23:41:14.678Z,3.30
2019-05-05T23:43:45.101Z,3.30
2019-05-05T23:46:14.520Z,3.30
2019-05-05T23:48:43.705Z,3.30
2019-05-05T23:51:13.930Z,3.30
2019-05-05T23:53:44.506Z,3.30
2019-05-05T23:56:13.892Z,3.30
2019-05-05T23:58:44.086Z,3.30
